createdAt,value
2019-03-31T00:01:53.555Z,90.10
2019-03-31T00:11:59.195Z,90.40
2019-03-31T00:22:05.376Z,90.60
2019-03-31T00:32:10.869Z,91.10
2019-03-31T00:42:16.378Z,91.20
2019-03-31T00:52:21.891Z,91.30
2019-03-31T01:02:32.201Z,91.40
2019-03-31T01:12:38.276Z,91.30
2019-03-31T01:22:43.837Z,91.20
2019-03-31T01:32:49.624Z,91.10
2019-03-31T01:42:55.362Z,91.00
2019-03-31T01:53:01.079Z,91.30
2019-03-31T02:03:06.959Z,91.90
2019-03-31T02:13:12.715Z,92.10
2019-03-31T02:23:18.440Z,92.30
2019-03-31T02:33:24.035Z,92.70
2019-03-31T02:43:29.641Z,93.10
2019-03-31T02:53:35.146Z,93.30
2019-03-31T03:03:41.179Z,92.60
2019-03-31T03:13:49.747Z,92.50
2019-03-31T03:23:55.314Z,93.00
2019-03-31T03:34:01.005Z,93.20
2019-03-31T03:44:06.612Z,93.50
2019-03-31T03:54:12.121Z,93.70
2019-03-31T04:04:17.715Z,93.80
2019-03-31T04:14:23.363Z,94.00
2019-03-31T04:24:28.957Z,94.30
2019-03-31T04:34:34.601Z,94.50
2019-03-31T04:44:40.409Z,94.80
2019-03-31T04:54:45.928Z,94.80
2019-03-31T05:04:51.446Z,94.50
2019-03-31T05:14:58.196Z,94.00
2019-03-31T05:25:04.495Z,93.60
2019-03-31T05:35:10.120Z,93.30
2019-03-31T05:45:15.826Z,92.80
2019-03-31T05:55:21.426Z,92.10
2019-03-31T06:05:26.943Z,91.60
2019-03-31T06:15:32.459Z,90.60
2019-03-31T06:25:38.058Z,89.20
2019-03-31T06:35:43.579Z,88.70
2019-03-31T06:45:49.124Z,88.50
2019-03-31T06:55:55.892Z,85.90
2019-03-31T07:06:01.651Z,87.60
2019-03-31T07:16:10.520Z,84.20
2019-03-31T07:26:16.188Z,81.60
2019-03-31T07:36:25.087Z,78.50
2019-03-31T07:46:30.653Z,80.30
2019-03-31T07:56:37.679Z,73.90
2019-03-31T08:06:43.199Z,78.40
2019-03-31T08:16:48.934Z,74.40
2019-03-31T08:26:54.475Z,76.10
2019-03-31T08:37:00.075Z,68.40
2019-03-31T08:47:06.446Z,74.20
2019-03-31T08:57:12.028Z,75.30
2019-03-31T09:07:17.637Z,73.50
2019-03-31T09:17:23.279Z,74.40
2019-03-31T09:27:28.770Z,74.20
2019-03-31T09:37:34.477Z,77.90
2019-03-31T09:47:40.220Z,68.00
2019-03-31T09:57:45.885Z,56.30
2019-03-31T10:07:51.675Z,56.40
2019-03-31T10:17:57.311Z,48.40
2019-03-31T10:28:04.993Z,44.80
2019-03-31T10:38:10.939Z,47.60
2019-03-31T10:48:20.710Z,44.00
2019-03-31T10:58:25.128Z,47.60
2019-03-31T11:19:20.098Z,46.20
2019-03-31T11:29:25.683Z,44.10
2019-03-31T11:39:31.195Z,45.30
2019-03-31T11:49:38.170Z,42.30
2019-03-31T11:59:43.887Z,37.30
2019-03-31T12:09:49.720Z,35.30
2019-03-31T12:19:55.595Z,36.00
2019-03-31T12:30:01.196Z,36.50
2019-03-31T12:40:08.236Z,35.80
2019-03-31T12:50:14.083Z,35.70
2019-03-31T13:00:20.382Z,36.90
2019-03-31T13:10:26.082Z,40.30
2019-03-31T13:20:33.502Z,39.80
2019-03-31T13:30:40.213Z,41.10
2019-03-31T13:40:46.488Z,42.70
2019-03-31T13:50:52.362Z,43.40
2019-03-31T14:00:58.303Z,46.30
2019-03-31T14:11:04.246Z,50.40
2019-03-31T14:21:10.337Z,35.20
2019-03-31T14:31:16.175Z,35.10
2019-03-31T14:41:21.995Z,35.60
2019-03-31T14:51:29.350Z,35.20
2019-03-31T15:01:35.180Z,37.20
2019-03-31T15:11:41.001Z,40.20
2019-03-31T15:21:46.984Z,42.40
2019-03-31T15:31:53.156Z,43.20
2019-03-31T15:41:59.321Z,43.60
2019-03-31T15:52:08.581Z,46.70
2019-03-31T16:02:12.760Z,51.60
2019-03-31T16:12:18.808Z,50.20
2019-03-31T16:22:24.781Z,49.10
2019-03-31T16:32:30.715Z,50.60
2019-03-31T16:42:36.762Z,54.40
2019-03-31T16:52:42.723Z,56.00
2019-03-31T17:02:48.706Z,57.80
2019-03-31T17:12:54.715Z,58.80
2019-03-31T17:23:00.797Z,59.60
2019-03-31T17:33:06.725Z,61.50
2019-03-31T17:43:12.642Z,62.30
2019-03-31T17:53:18.602Z,63.50
2019-03-31T18:03:24.607Z,65.50
2019-03-31T18:13:30.682Z,68.00
2019-03-31T18:23:38.788Z,73.40
2019-03-31T18:33:44.809Z,76.90
2019-03-31T18:43:51.979Z,85.30
2019-03-31T18:54:04.658Z,80.50
2019-03-31T19:04:28.486Z,81.80
2019-03-31T19:14:39.100Z,82.80
2019-03-31T19:24:46.987Z,83.70
2019-03-31T19:35:12.607Z,84.80
2019-03-31T19:45:36.289Z,85.20
2019-03-31T19:55:50.005Z,84.90
2019-03-31T20:06:15.640Z,88.30
2019-03-31T20:16:23.098Z,87.80
2019-03-31T20:26:42.601Z,86.00
2019-03-31T20:37:05.790Z,85.80
2019-03-31T20:47:11.754Z,85.80
2019-03-31T20:57:17.807Z,84.40
2019-03-31T21:07:23.617Z,85.80
2019-03-31T21:17:29.342Z,85.60
2019-03-31T21:27:35.996Z,85.90
2019-03-31T21:37:41.687Z,83.70
2019-03-31T21:47:47.234Z,82.60
2019-03-31T21:57:52.884Z,82.20
2019-03-31T22:07:58.378Z,83.20
2019-03-31T22:18:03.884Z,84.90
2019-03-31T22:28:09.755Z,86.50
2019-03-31T22:38:15.351Z,88.10
2019-03-31T22:48:20.862Z,89.40
2019-03-31T22:58:26.377Z,90.40
2019-03-31T23:08:31.997Z,90.80
2019-03-31T23:18:37.682Z,90.90
2019-03-31T23:29:01.084Z,91.30
2019-03-31T23:39:08.097Z,91.50
2019-03-31T23:49:13.709Z,91.00
2019-03-31T23:59:19.277Z,91.00
